createdAt,value
2019-03-25T00:01:05.950Z,36.00
2019-03-25T00:03:33.750Z,31.57
2019-03-25T00:06:01.575Z,33.47
2019-03-25T00:08:29.251Z,33.60
2019-03-25T00:10:56.938Z,35.27
2019-03-25T00:13:24.829Z,32.53
2019-03-25T00:15:52.606Z,33.77
2019-03-25T00:18:20.478Z,38.00
2019-03-25T00:20:48.267Z,33.10
2019-03-25T00:23:16.145Z,34.23
2019-03-25T00:25:43.878Z,36.93
2019-03-25T00:28:13.711Z,38.97
2019-03-25T00:30:41.358Z,34.50
2019-03-25T00:33:09.121Z,31.53
2019-03-25T00:35:36.802Z,35.33
2019-03-25T00:38:04.604Z,36.27
2019-03-25T00:40:32.360Z,36.03
2019-03-25T00:43:00.056Z,35.03
2019-03-25T00:45:27.850Z,35.13
2019-03-25T00:47:55.528Z,38.90
2019-03-25T00:50:23.157Z,34.03
2019-03-25T00:52:50.818Z,36.80
2019-03-25T00:55:18.624Z,35.07
2019-03-25T00:57:46.317Z,35.93
2019-03-25T01:00:14.350Z,35.53
2019-03-25T01:02:42.105Z,33.27
2019-03-25T01:05:10.096Z,36.13
2019-03-25T01:07:37.893Z,33.60
2019-03-25T01:10:05.905Z,40.47
2019-03-25T01:12:33.680Z,36.87
2019-03-25T01:15:01.339Z,35.37
2019-03-25T01:17:29.128Z,34.47
2019-03-25T01:19:56.886Z,34.13
2019-03-25T01:22:24.701Z,34.43
2019-03-25T01:25:01.289Z,36.33
2019-03-25T01:27:22.020Z,35.27
2019-03-25T01:29:49.800Z,37.10
2019-03-25T01:32:17.589Z,35.53
2019-03-25T01:34:45.369Z,32.87
2019-03-25T01:37:13.168Z,36.10
2019-03-25T01:39:40.855Z,37.83
2019-03-25T01:42:11.161Z,34.23
2019-03-25T01:44:38.181Z,35.10
2019-03-25T01:47:06.014Z,37.43
2019-03-25T01:49:33.860Z,34.93
2019-03-25T01:52:01.645Z,37.03
2019-03-25T01:54:29.309Z,33.13
2019-03-25T01:56:57.004Z,39.03
2019-03-25T01:59:24.687Z,33.03
2019-03-25T02:01:52.366Z,35.13
2019-03-25T02:04:20.168Z,36.77
2019-03-25T02:06:48.013Z,33.57
2019-03-25T02:09:15.715Z,35.03
2019-03-25T02:11:43.403Z,37.70
2019-03-25T02:14:11.147Z,31.73
2019-03-25T02:16:38.959Z,36.37
2019-03-25T02:19:06.721Z,38.47
2019-03-25T02:21:34.513Z,35.50
2019-03-25T02:24:02.418Z,32.37
2019-03-25T02:26:30.220Z,40.10
2019-03-25T02:28:57.997Z,35.73
2019-03-25T02:31:25.810Z,33.13
2019-03-25T02:33:53.668Z,32.93
2019-03-25T02:36:21.457Z,33.50
2019-03-25T02:38:49.249Z,34.60
2019-03-25T02:41:18.871Z,34.37
2019-03-25T02:43:46.599Z,34.80
2019-03-25T02:46:14.246Z,32.37
2019-03-25T02:48:42.045Z,34.00
2019-03-25T02:51:09.878Z,37.80
2019-03-25T02:53:37.681Z,34.87
2019-03-25T02:56:05.499Z,33.20
2019-03-25T02:58:33.259Z,35.53
2019-03-25T03:01:01.065Z,38.93
2019-03-25T03:03:28.845Z,37.03
2019-03-25T03:05:56.532Z,37.40
2019-03-25T03:08:24.306Z,37.37
2019-03-25T03:10:52.166Z,40.60
2019-03-25T03:13:19.947Z,36.33
2019-03-25T03:15:47.709Z,34.90
2019-03-25T03:18:15.429Z,38.10
2019-03-25T03:20:43.092Z,35.70
2019-03-25T03:23:10.878Z,31.83
2019-03-25T03:25:38.635Z,37.43
2019-03-25T03:28:06.470Z,37.17
2019-03-25T03:30:34.246Z,39.40
2019-03-25T03:33:02.031Z,37.97
2019-03-25T03:35:29.791Z,38.37
2019-03-25T03:37:57.467Z,36.83
2019-03-25T03:40:25.185Z,34.97
2019-03-25T03:42:52.852Z,39.93
2019-03-25T03:45:20.666Z,35.60
2019-03-25T03:47:48.593Z,36.17
2019-03-25T03:50:26.801Z,34.47
2019-03-25T03:52:55.937Z,36.80
2019-03-25T03:55:23.737Z,36.90
2019-03-25T03:57:53.538Z,33.80
2019-03-25T04:00:29.220Z,34.07
2019-03-25T04:02:56.971Z,31.93
2019-03-25T04:05:24.626Z,33.47
2019-03-25T04:07:52.399Z,32.87
2019-03-25T04:10:20.160Z,35.50
2019-03-25T04:12:47.979Z,33.77
2019-03-25T04:15:24.278Z,30.67
2019-03-25T04:17:51.958Z,30.63
2019-03-25T04:20:19.758Z,33.57
2019-03-25T04:22:47.562Z,34.20
2019-03-25T04:25:15.343Z,33.10
2019-03-25T04:27:43.127Z,30.07
2019-03-25T04:30:10.925Z,29.33
2019-03-25T04:32:38.705Z,33.83
2019-03-25T04:35:06.554Z,30.63
2019-03-25T04:37:34.379Z,30.83
2019-03-25T04:40:02.212Z,32.73
2019-03-25T04:42:29.958Z,30.97
2019-03-25T04:44:57.665Z,32.63
2019-03-25T04:47:25.432Z,31.43
2019-03-25T04:49:53.127Z,31.90
2019-03-25T04:52:20.879Z,29.37
2019-03-25T04:54:48.786Z,32.70
2019-03-25T04:57:16.467Z,30.17
2019-03-25T04:59:44.266Z,32.60
2019-03-25T05:02:11.922Z,30.43
2019-03-25T05:04:39.725Z,34.13
2019-03-25T05:07:07.525Z,31.17
2019-03-25T05:09:35.314Z,34.83
2019-03-25T05:12:03.110Z,31.77
2019-03-25T05:14:30.923Z,33.63
2019-03-25T05:16:58.648Z,38.63
2019-03-25T05:19:26.424Z,34.70
2019-03-25T05:21:54.106Z,38.67
2019-03-25T05:24:21.906Z,37.67
2019-03-25T05:26:51.319Z,38.13
2019-03-25T05:29:19.249Z,34.37
2019-03-25T05:31:47.086Z,34.80
2019-03-25T05:34:14.762Z,41.23
2019-03-25T05:36:42.596Z,39.80
2019-03-25T05:39:10.383Z,39.07
2019-03-25T05:41:38.178Z,35.40
2019-03-25T05:44:05.976Z,36.83
2019-03-25T05:46:33.755Z,40.80
2019-03-25T05:49:01.518Z,39.37
2019-03-25T05:51:29.309Z,36.90
2019-03-25T05:53:57.047Z,35.43
2019-03-25T05:56:24.934Z,35.80
2019-03-25T05:58:52.818Z,38.43
2019-03-25T06:01:20.761Z,35.93
2019-03-25T06:03:48.702Z,34.07
2019-03-25T06:06:16.775Z,34.60
2019-03-25T06:08:44.558Z,34.50
2019-03-25T06:11:12.232Z,32.10
2019-03-25T06:13:40.006Z,31.13
2019-03-25T06:16:07.759Z,31.47
2019-03-25T06:18:35.470Z,30.00
2019-03-25T06:21:03.306Z,29.90
2019-03-25T06:23:31.088Z,29.07
2019-03-25T06:25:58.856Z,30.87
2019-03-25T06:28:26.705Z,31.73
2019-03-25T06:30:54.496Z,24.10
2019-03-25T06:33:22.192Z,26.73
2019-03-25T06:35:49.964Z,25.40
2019-03-25T06:38:17.744Z,24.43
2019-03-25T06:40:45.418Z,21.13
2019-03-25T06:43:13.317Z,21.53
2019-03-25T06:45:41.128Z,18.97
2019-03-25T06:48:09.048Z,18.87
2019-03-25T06:50:36.817Z,18.43
2019-03-25T06:53:04.675Z,19.80
2019-03-25T06:55:32.440Z,17.40
2019-03-25T06:58:00.218Z,19.70
2019-03-25T07:00:28.044Z,22.13
2019-03-25T07:02:55.881Z,19.30
2019-03-25T07:05:23.719Z,23.57
2019-03-25T07:07:51.497Z,15.70
2019-03-25T07:10:30.653Z,17.83
2019-03-25T07:12:58.420Z,16.73
2019-03-25T07:15:27.569Z,14.20
2019-03-25T07:17:55.375Z,15.77
2019-03-25T07:20:23.270Z,16.00
2019-03-25T07:22:51.038Z,20.60
2019-03-25T07:25:18.951Z,15.20
2019-03-25T07:27:46.728Z,15.33
2019-03-25T07:30:14.637Z,14.10
2019-03-25T07:32:42.401Z,14.07
2019-03-25T07:35:10.159Z,11.65
2019-03-25T07:37:37.868Z,11.55
2019-03-25T07:40:07.058Z,10.35
2019-03-25T07:42:34.843Z,12.47
2019-03-25T07:45:02.726Z,10.45
2019-03-25T07:47:30.544Z,9.73
2019-03-25T07:49:58.356Z,13.53
2019-03-25T07:52:26.014Z,11.78
2019-03-25T07:54:53.894Z,13.75
2019-03-25T07:57:21.741Z,11.12
2019-03-25T07:59:49.556Z,10.50
2019-03-25T08:02:17.448Z,9.18
2019-03-25T08:04:45.227Z,11.43
2019-03-25T08:07:13.149Z,9.20
2019-03-25T08:09:41.087Z,10.38
2019-03-25T08:12:08.914Z,10.65
2019-03-25T08:14:36.813Z,7.37
2019-03-25T08:17:04.697Z,8.23
2019-03-25T08:19:32.490Z,7.53
2019-03-25T08:22:00.439Z,9.38
2019-03-25T08:24:28.249Z,9.20
2019-03-25T08:26:56.011Z,7.75
2019-03-25T08:29:23.691Z,7.58
2019-03-25T08:31:51.493Z,7.25
2019-03-25T08:34:19.390Z,6.55
2019-03-25T08:36:47.186Z,7.17
2019-03-25T08:39:14.954Z,8.38
2019-03-25T08:41:42.763Z,5.25
2019-03-25T08:44:10.548Z,7.47
2019-03-25T08:46:38.363Z,8.05
2019-03-25T08:49:06.172Z,7.47
2019-03-25T08:51:34.859Z,6.95
2019-03-25T08:54:02.736Z,6.45
2019-03-25T08:56:30.541Z,6.22
2019-03-25T08:58:58.210Z,7.00
2019-03-25T09:01:25.968Z,8.33
2019-03-25T09:03:53.665Z,7.72
2019-03-25T09:06:21.398Z,6.08
2019-03-25T09:08:49.089Z,7.60
2019-03-25T09:11:16.955Z,10.05
2019-03-25T09:13:44.709Z,7.62
2019-03-25T09:16:12.562Z,10.30
2019-03-25T09:18:40.365Z,7.15
2019-03-25T09:21:08.191Z,8.43
2019-03-25T09:23:35.961Z,9.83
2019-03-25T09:26:03.950Z,8.83
2019-03-25T09:28:31.721Z,8.00
2019-03-25T09:31:06.038Z,6.62
2019-03-25T09:33:33.888Z,7.33
2019-03-25T09:36:01.761Z,9.30
2019-03-25T09:38:29.719Z,9.25
2019-03-25T09:40:57.387Z,7.72
2019-03-25T09:43:25.200Z,7.37
2019-03-25T09:45:52.996Z,8.58
2019-03-25T09:48:20.796Z,9.43
2019-03-25T09:50:48.496Z,7.72
2019-03-25T09:53:16.301Z,7.72
2019-03-25T09:55:44.066Z,8.20
2019-03-25T09:58:11.771Z,8.85
2019-03-25T10:00:39.456Z,8.70
2019-03-25T10:03:07.189Z,6.47
2019-03-25T10:05:36.730Z,6.62
2019-03-25T10:08:04.975Z,8.90
2019-03-25T10:10:32.830Z,6.00
2019-03-25T10:13:00.643Z,4.60
2019-03-25T10:15:28.414Z,5.90
2019-03-25T10:17:56.213Z,4.40
2019-03-25T10:20:24.000Z,4.15
2019-03-25T10:22:51.890Z,5.87
2019-03-25T10:25:19.678Z,3.42
2019-03-25T10:27:47.363Z,2.55
2019-03-25T10:30:15.789Z,6.33
2019-03-25T10:32:43.563Z,4.12
2019-03-25T10:35:11.859Z,3.47
2019-03-25T10:37:39.757Z,7.97
2019-03-25T10:40:07.919Z,2.45
2019-03-25T10:42:35.819Z,1.98
2019-03-25T10:45:04.455Z,2.98
2019-03-25T10:47:32.139Z,2.80
2019-03-25T10:50:00.068Z,2.92
2019-03-25T10:52:27.990Z,2.70
2019-03-25T10:57:24.776Z,3.83
2019-03-25T10:59:52.624Z,3.42
2019-03-25T11:02:20.454Z,5.65
2019-03-25T11:04:48.155Z,1.92
2019-03-25T11:07:15.865Z,1.55
2019-03-25T11:09:43.516Z,1.80
2019-03-25T11:12:11.228Z,2.12
2019-03-25T11:14:39.054Z,1.82
2019-03-25T11:17:06.684Z,2.33
2019-03-25T11:19:34.337Z,2.77
2019-03-25T11:22:02.065Z,1.72
2019-03-25T11:24:30.376Z,2.37
2019-03-25T11:26:58.093Z,2.77
2019-03-25T11:29:25.732Z,1.75
2019-03-25T11:31:53.389Z,2.70
2019-03-25T11:34:20.893Z,2.65
2019-03-25T11:36:48.545Z,3.75
2019-03-25T11:39:16.228Z,3.08
2019-03-25T11:41:43.778Z,2.60
2019-03-25T11:44:11.366Z,1.42
2019-03-25T11:46:38.962Z,2.25
2019-03-25T11:49:06.579Z,2.45
2019-03-25T11:51:34.167Z,2.17
2019-03-25T11:54:01.924Z,1.15
2019-03-25T11:56:29.490Z,4.10
2019-03-25T11:58:57.121Z,3.47
2019-03-25T12:01:24.708Z,1.67
2019-03-25T12:03:52.327Z,1.75
2019-03-25T12:06:19.989Z,2.85
2019-03-25T12:08:47.737Z,2.10
2019-03-25T12:11:15.393Z,3.37
2019-03-25T12:13:43.020Z,2.98
2019-03-25T12:16:10.625Z,2.62
2019-03-25T12:18:38.258Z,6.10
2019-03-25T12:21:06.003Z,1.52
2019-03-25T12:23:33.624Z,1.87
2019-03-25T12:26:01.365Z,1.65
2019-03-25T12:28:29.193Z,2.12
2019-03-25T12:30:57.013Z,2.70
2019-03-25T12:33:24.885Z,4.10
2019-03-25T12:35:52.705Z,2.50
2019-03-25T12:38:20.521Z,4.10
2019-03-25T12:40:48.361Z,2.67
2019-03-25T12:43:16.175Z,2.40
2019-03-25T12:45:43.967Z,2.20
2019-03-25T12:48:11.803Z,2.67
2019-03-25T12:50:39.600Z,2.15
2019-03-25T12:53:07.447Z,1.67
2019-03-25T12:55:35.362Z,2.92
2019-03-25T12:58:03.217Z,3.15
2019-03-25T13:00:38.957Z,1.72
2019-03-25T13:03:06.705Z,2.22
2019-03-25T13:05:34.550Z,3.37
2019-03-25T13:08:02.475Z,2.72
2019-03-25T13:10:30.441Z,1.95
2019-03-25T13:12:58.245Z,1.45
2019-03-25T13:15:26.014Z,5.22
2019-03-25T13:17:53.827Z,2.72
2019-03-25T13:20:22.786Z,3.02
2019-03-25T13:22:50.857Z,3.35
2019-03-25T13:25:18.589Z,3.15
2019-03-25T13:27:46.261Z,4.60
2019-03-25T13:30:14.244Z,3.42
2019-03-25T13:32:41.940Z,2.52
2019-03-25T13:35:09.635Z,2.67
2019-03-25T13:37:37.459Z,3.30
2019-03-25T13:40:05.795Z,2.65
2019-03-25T13:42:33.608Z,2.15
2019-03-25T13:45:01.370Z,3.92
2019-03-25T13:47:29.204Z,3.60
2019-03-25T13:49:57.085Z,4.10
2019-03-25T13:52:24.915Z,2.70
2019-03-25T13:54:52.691Z,2.02
2019-03-25T13:57:20.589Z,6.80
2019-03-25T13:59:48.363Z,2.62
2019-03-25T14:02:16.110Z,2.62
2019-03-25T14:04:43.872Z,2.58
2019-03-25T14:07:11.579Z,3.00
2019-03-25T14:09:39.365Z,1.67
2019-03-25T14:12:07.238Z,1.80
2019-03-25T14:14:35.027Z,2.58
2019-03-25T14:17:02.982Z,2.33
2019-03-25T14:19:30.661Z,2.58
2019-03-25T14:21:58.471Z,3.75
2019-03-25T14:24:26.259Z,1.27
2019-03-25T14:26:54.058Z,2.55
2019-03-25T14:29:21.742Z,1.92
2019-03-25T14:31:49.504Z,5.03
2019-03-25T14:34:17.216Z,1.95
2019-03-25T14:36:45.006Z,2.30
2019-03-25T14:39:12.708Z,2.90
2019-03-25T14:41:40.386Z,1.67
2019-03-25T14:44:08.184Z,1.65
2019-03-25T14:46:35.973Z,1.12
2019-03-25T14:49:03.655Z,3.35
2019-03-25T14:51:31.517Z,1.87
2019-03-25T14:53:59.356Z,1.30
2019-03-25T14:56:27.055Z,2.70
2019-03-25T14:58:54.794Z,1.77
2019-03-25T15:01:22.578Z,1.63
2019-03-25T15:03:50.309Z,1.90
2019-03-25T15:06:18.086Z,2.20
2019-03-25T15:08:45.919Z,2.47
2019-03-25T15:11:13.696Z,2.17
2019-03-25T15:13:41.451Z,3.13
2019-03-25T15:16:09.245Z,3.30
2019-03-25T15:18:37.021Z,3.07
2019-03-25T15:21:04.798Z,1.93
2019-03-25T15:23:32.522Z,2.77
2019-03-25T15:26:00.281Z,2.17
2019-03-25T15:28:28.052Z,1.90
2019-03-25T15:30:55.896Z,1.90
2019-03-25T15:33:23.690Z,1.77
2019-03-25T15:35:51.480Z,1.63
2019-03-25T15:38:19.289Z,1.83
2019-03-25T15:40:47.088Z,1.67
2019-03-25T15:43:14.881Z,1.47
2019-03-25T15:45:42.595Z,1.63
2019-03-25T15:48:10.515Z,1.20
2019-03-25T15:50:38.228Z,1.60
2019-03-25T15:53:06.058Z,1.83
2019-03-25T15:55:33.874Z,1.50
2019-03-25T15:58:01.677Z,1.57
2019-03-25T16:00:29.598Z,1.60
2019-03-25T16:02:57.279Z,1.57
2019-03-25T16:05:25.082Z,2.30
2019-03-25T16:07:52.906Z,1.50
2019-03-25T16:10:21.326Z,2.13
2019-03-25T16:12:49.039Z,3.50
2019-03-25T16:15:34.329Z,1.83
2019-03-25T16:18:03.492Z,3.80
2019-03-25T16:20:31.342Z,1.93
2019-03-25T16:22:59.228Z,2.63
2019-03-25T16:25:27.233Z,3.33
2019-03-25T16:27:55.018Z,2.90
2019-03-25T16:30:22.808Z,3.73
2019-03-25T16:32:50.591Z,2.63
2019-03-25T16:35:18.566Z,2.97
2019-03-25T16:37:46.376Z,2.27
2019-03-25T16:40:14.209Z,2.13
2019-03-25T16:42:42.006Z,2.63
2019-03-25T16:45:10.050Z,1.83
2019-03-25T16:47:37.919Z,1.23
2019-03-25T16:50:05.876Z,1.30
2019-03-25T16:52:33.730Z,1.40
2019-03-25T16:55:01.557Z,1.27
2019-03-25T16:57:29.357Z,1.10
2019-03-25T16:59:57.035Z,1.70
2019-03-25T17:02:24.933Z,1.63
2019-03-25T17:04:52.759Z,1.40
2019-03-25T17:07:20.455Z,1.30
2019-03-25T17:09:48.362Z,1.47
2019-03-25T17:12:16.163Z,2.13
2019-03-25T17:14:44.030Z,1.33
2019-03-25T17:17:11.823Z,2.63
2019-03-25T17:19:39.675Z,1.40
2019-03-25T17:22:07.860Z,1.70
2019-03-25T17:24:35.680Z,1.50
2019-03-25T17:27:03.499Z,1.97
2019-03-25T17:29:31.325Z,2.67
2019-03-25T17:31:59.113Z,2.97
2019-03-25T17:34:26.921Z,3.37
2019-03-25T17:36:54.822Z,3.03
2019-03-25T17:39:22.648Z,6.23
2019-03-25T17:41:50.345Z,2.10
2019-03-25T17:44:18.211Z,3.10
2019-03-25T17:46:46.032Z,3.63
2019-03-25T17:49:13.837Z,2.00
2019-03-25T17:51:41.633Z,3.83
2019-03-25T17:54:09.428Z,1.47
2019-03-25T17:56:37.246Z,2.43
2019-03-25T17:59:05.182Z,1.60
2019-03-25T18:01:33.954Z,4.13
2019-03-25T18:04:01.815Z,1.57
2019-03-25T18:06:29.672Z,1.70
2019-03-25T18:08:57.582Z,3.23
2019-03-25T18:11:25.282Z,2.10
2019-03-25T18:13:53.084Z,3.13
2019-03-25T18:16:20.834Z,3.37
2019-03-25T18:18:48.749Z,2.37
2019-03-25T18:21:16.648Z,2.20
2019-03-25T18:23:44.541Z,1.90
2019-03-25T18:26:12.466Z,1.63
2019-03-25T18:28:40.280Z,1.93
2019-03-25T18:31:08.157Z,1.87
2019-03-25T18:33:36.056Z,3.13
2019-03-25T18:36:03.734Z,1.43
2019-03-25T18:38:31.583Z,2.93
2019-03-25T18:40:59.379Z,1.80
2019-03-25T18:43:27.256Z,1.67
2019-03-25T18:45:55.069Z,1.83
2019-03-25T18:48:22.885Z,1.73
2019-03-25T18:50:50.704Z,1.67
2019-03-25T18:53:18.623Z,2.73
2019-03-25T18:55:46.433Z,2.63
2019-03-25T18:58:14.196Z,1.57
2019-03-25T19:00:42.029Z,1.50
2019-03-25T19:03:10.072Z,2.10
2019-03-25T19:05:37.927Z,1.87
2019-03-25T19:08:06.295Z,1.87
2019-03-25T19:10:40.279Z,2.13
2019-03-25T19:13:08.145Z,4.07
2019-03-25T19:15:35.909Z,4.33
2019-03-25T19:18:03.760Z,5.07
2019-03-25T19:20:31.592Z,2.47
2019-03-25T19:22:59.432Z,2.80
2019-03-25T19:25:27.277Z,4.27
2019-03-25T19:27:55.031Z,2.90
2019-03-25T19:30:22.839Z,2.80
2019-03-25T19:32:50.638Z,2.37
2019-03-25T19:35:18.568Z,2.30
2019-03-25T19:37:46.451Z,2.40
2019-03-25T19:40:14.471Z,3.30
2019-03-25T19:42:42.324Z,3.77
2019-03-25T19:45:10.472Z,3.13
2019-03-25T19:47:38.305Z,4.93
2019-03-25T19:50:07.265Z,3.47
2019-03-25T19:52:35.200Z,3.60
2019-03-25T19:55:03.087Z,3.13
2019-03-25T19:57:30.993Z,6.03
2019-03-25T19:59:58.946Z,4.43
2019-03-25T20:02:26.766Z,4.03
2019-03-25T20:04:54.660Z,4.97
2019-03-25T20:07:22.484Z,3.07
2019-03-25T20:09:50.322Z,2.17
2019-03-25T20:12:18.162Z,2.30
2019-03-25T20:14:46.016Z,1.80
2019-03-25T20:17:16.775Z,2.00
2019-03-25T20:19:44.558Z,1.93
2019-03-25T20:22:12.486Z,1.90
2019-03-25T20:24:40.386Z,1.47
2019-03-25T20:27:08.225Z,1.37
2019-03-25T20:29:36.035Z,1.50
2019-03-25T20:32:03.977Z,1.63
2019-03-25T20:34:31.936Z,1.30
2019-03-25T20:36:59.831Z,1.33
2019-03-25T20:39:27.653Z,2.13
2019-03-25T20:41:55.463Z,1.40
2019-03-25T20:44:23.387Z,2.30
2019-03-25T20:46:51.219Z,1.50
2019-03-25T20:49:19.221Z,1.37
2019-03-25T20:51:47.005Z,2.17
2019-03-25T20:54:15.021Z,1.30
2019-03-25T20:56:42.865Z,2.27
2019-03-25T20:59:10.690Z,1.30
2019-03-25T21:01:38.540Z,1.47
2019-03-25T21:04:06.344Z,1.27
2019-03-25T21:06:34.165Z,1.50
2019-03-25T21:09:02.131Z,1.50
2019-03-25T21:11:29.854Z,1.60
2019-03-25T21:13:57.639Z,2.00
2019-03-25T21:16:25.517Z,1.93
2019-03-25T21:18:53.343Z,1.50
2019-03-25T21:21:21.226Z,1.67
2019-03-25T21:23:49.236Z,2.30
2019-03-25T21:26:17.129Z,1.90
2019-03-25T21:28:44.910Z,1.87
2019-03-25T21:31:12.797Z,1.83
2019-03-25T21:33:40.745Z,2.10
2019-03-25T21:36:08.633Z,2.77
2019-03-25T21:38:36.601Z,1.80
2019-03-25T21:41:04.458Z,2.10
2019-03-25T21:43:32.349Z,2.07
2019-03-25T21:46:00.222Z,2.10
2019-03-25T21:48:28.169Z,1.80
2019-03-25T21:50:56.076Z,1.93
2019-03-25T21:53:24.075Z,2.97
2019-03-25T21:55:51.916Z,3.60
2019-03-25T21:58:19.787Z,2.00
2019-03-25T22:00:47.821Z,2.23
2019-03-25T22:03:15.932Z,3.93
2019-03-25T22:05:43.885Z,2.07
2019-03-25T22:08:11.695Z,2.37
2019-03-25T22:10:39.447Z,2.87
2019-03-25T22:13:07.272Z,2.60
2019-03-25T22:15:35.060Z,3.50
2019-03-25T22:18:02.891Z,2.67
2019-03-25T22:20:30.677Z,2.40
2019-03-25T22:22:58.470Z,2.47
2019-03-25T22:25:26.306Z,2.23
2019-03-25T22:27:54.088Z,2.40
2019-03-25T22:30:21.777Z,2.07
2019-03-25T22:32:49.490Z,2.40
2019-03-25T22:35:17.451Z,2.30
2019-03-25T22:37:45.236Z,2.30
2019-03-25T22:40:13.146Z,2.60
2019-03-25T22:42:40.964Z,2.73
2019-03-25T22:45:08.863Z,2.20
2019-03-25T22:47:36.616Z,3.13
2019-03-25T22:50:05.653Z,1.90
2019-03-25T22:52:33.367Z,2.10
2019-03-25T22:55:01.209Z,2.07
2019-03-25T22:57:29.000Z,2.87
2019-03-25T22:59:56.687Z,2.50
2019-03-25T23:02:24.495Z,2.30
2019-03-25T23:04:52.318Z,3.43
2019-03-25T23:07:20.004Z,1.97
2019-03-25T23:09:47.782Z,3.33
2019-03-25T23:12:15.582Z,2.17
2019-03-25T23:14:43.359Z,2.53
2019-03-25T23:17:11.203Z,2.40
2019-03-25T23:19:38.985Z,2.40
2019-03-25T23:22:06.885Z,2.63
2019-03-25T23:24:34.682Z,2.17
2019-03-25T23:27:02.544Z,2.30
2019-03-25T23:29:31.510Z,3.27
2019-03-25T23:31:59.431Z,3.83
2019-03-25T23:34:27.232Z,2.30
2019-03-25T23:36:55.012Z,3.23
2019-03-25T23:39:25.186Z,2.00
2019-03-25T23:41:53.147Z,3.43
2019-03-25T23:44:20.952Z,2.67
2019-03-25T23:46:48.762Z,2.30
2019-03-25T23:49:16.428Z,2.27
2019-03-25T23:51:44.238Z,2.53
2019-03-25T23:54:13.646Z,2.20
2019-03-25T23:56:41.613Z,2.70
2019-03-25T23:59:09.361Z,2.30
